createdAt,value
2023-04-26T00:01:31.009Z,8.68
2023-04-26T00:03:57.939Z,11.32
2023-04-26T00:06:24.989Z,14.13
2023-04-26T00:08:51.968Z,12.05
2023-04-26T00:11:18.919Z,10.25
2023-04-26T00:13:45.630Z,10.10
2023-04-26T00:16:14.366Z,11.70
2023-04-26T00:18:41.468Z,11.90
2023-04-26T00:21:08.182Z,11.07
2023-04-26T00:23:36.658Z,15.27
2023-04-26T00:26:03.617Z,14.43
2023-04-26T00:28:31.512Z,12.68
2023-04-26T00:30:58.444Z,12.15
2023-04-26T00:33:25.232Z,14.10
2023-04-26T00:35:52.390Z,12.45
2023-04-26T00:38:19.152Z,14.52
2023-04-26T00:40:45.792Z,13.93
2023-04-26T00:43:12.443Z,17.02
2023-04-26T00:45:39.173Z,13.65
2023-04-26T00:48:06.297Z,11.65
2023-04-26T00:50:33.100Z,13.02
2023-04-26T00:53:00.633Z,14.18
2023-04-26T00:55:27.504Z,13.05
2023-04-26T00:57:55.459Z,15.40
2023-04-26T01:00:22.881Z,14.55
2023-04-26T01:02:49.864Z,13.07
2023-04-26T01:05:16.764Z,15.40
2023-04-26T01:07:43.477Z,12.63
2023-04-26T01:10:10.726Z,14.35
2023-04-26T01:12:38.190Z,10.27
2023-04-26T01:15:05.880Z,13.88
2023-04-26T01:17:32.728Z,15.25
2023-04-26T01:19:59.439Z,13.15
2023-04-26T01:22:26.504Z,15.55
2023-04-26T01:24:53.144Z,17.83
2023-04-26T01:27:19.900Z,17.30
2023-04-26T01:29:47.715Z,16.20
2023-04-26T01:32:14.429Z,13.32
2023-04-26T01:34:41.278Z,10.50
2023-04-26T01:37:08.159Z,15.07
2023-04-26T01:39:36.672Z,17.00
2023-04-26T01:42:04.856Z,16.80
2023-04-26T01:44:31.888Z,14.15
2023-04-26T01:46:58.587Z,15.27
2023-04-26T01:49:25.230Z,14.20
2023-04-26T01:51:52.297Z,13.38
2023-04-26T01:54:19.004Z,15.35
2023-04-26T01:56:45.688Z,13.68
2023-04-26T01:59:12.478Z,11.63
2023-04-26T02:01:41.473Z,13.00
2023-04-26T02:04:08.268Z,12.25
2023-04-26T02:06:34.998Z,13.48
2023-04-26T02:09:01.652Z,14.93
2023-04-26T02:11:28.378Z,15.55
2023-04-26T02:13:55.066Z,11.07
2023-04-26T02:16:21.930Z,11.05
2023-04-26T02:18:50.081Z,10.75
2023-04-26T02:21:18.577Z,13.85
2023-04-26T02:23:45.710Z,14.80
2023-04-26T02:26:13.577Z,14.63
2023-04-26T02:28:40.277Z,12.23
2023-04-26T02:31:07.012Z,13.85
2023-04-26T02:33:33.690Z,14.63
2023-04-26T02:36:06.391Z,9.20
2023-04-26T02:38:35.304Z,12.50
2023-04-26T02:41:02.931Z,11.15
2023-04-26T02:43:29.927Z,11.20
2023-04-26T02:45:58.799Z,10.00
2023-04-26T02:48:25.774Z,15.63
2023-04-26T02:50:52.688Z,12.15
2023-04-26T02:53:19.486Z,11.93
2023-04-26T02:55:46.219Z,12.02
2023-04-26T02:58:13.285Z,14.50
2023-04-26T03:00:40.088Z,16.20
2023-04-26T03:03:06.908Z,12.90
2023-04-26T03:05:33.693Z,12.05
2023-04-26T03:08:00.418Z,13.85
2023-04-26T03:10:27.118Z,15.25
2023-04-26T03:12:53.780Z,13.88
2023-04-26T03:15:20.482Z,16.50
2023-04-26T03:17:47.198Z,15.75
2023-04-26T03:20:14.586Z,15.38
2023-04-26T03:22:41.341Z,12.63
2023-04-26T03:25:09.184Z,15.77
2023-04-26T03:27:35.876Z,14.77
2023-04-26T03:30:04.175Z,14.40
2023-04-26T03:32:34.111Z,11.82
2023-04-26T03:35:00.877Z,13.70
2023-04-26T03:37:27.590Z,13.57
2023-04-26T03:39:54.404Z,13.93
2023-04-26T03:42:21.430Z,15.40
2023-04-26T03:44:48.817Z,18.45
2023-04-26T03:47:15.981Z,14.25
2023-04-26T03:49:43.719Z,16.60
2023-04-26T03:52:10.414Z,17.25
2023-04-26T03:54:37.225Z,13.50
2023-04-26T03:57:04.482Z,14.25
2023-04-26T03:59:33.211Z,19.80
2023-04-26T04:02:04.391Z,15.57
2023-04-26T04:04:31.513Z,16.60
2023-04-26T04:06:59.355Z,17.35
2023-04-26T04:09:26.132Z,14.25
2023-04-26T04:11:52.954Z,17.80
2023-04-26T04:14:19.768Z,15.20
2023-04-26T04:16:46.687Z,19.70
2023-04-26T04:19:13.339Z,19.30
2023-04-26T04:21:40.900Z,20.73
2023-04-26T04:24:07.782Z,17.88
2023-04-26T04:26:34.629Z,19.05
2023-04-26T04:29:08.824Z,21.00
2023-04-26T04:31:36.486Z,20.77
2023-04-26T04:34:03.261Z,20.13
2023-04-26T04:36:31.122Z,18.02
2023-04-26T04:38:58.592Z,19.98
2023-04-26T04:41:25.387Z,23.63
2023-04-26T04:43:53.702Z,20.90
2023-04-26T04:46:20.413Z,20.73
2023-04-26T04:48:47.630Z,27.45
2023-04-26T04:51:14.330Z,28.85
2023-04-26T04:53:40.959Z,31.42
2023-04-26T04:56:07.918Z,29.92
2023-04-26T04:58:34.567Z,23.05
2023-04-26T05:01:01.475Z,18.85
2023-04-26T05:03:28.424Z,24.73
2023-04-26T05:05:55.188Z,18.60
2023-04-26T05:08:21.975Z,16.95
2023-04-26T05:10:48.611Z,16.88
2023-04-26T05:13:15.289Z,19.33
2023-04-26T05:15:42.048Z,23.40
2023-04-26T05:18:08.721Z,16.30
2023-04-26T05:20:35.533Z,17.67
2023-04-26T05:23:02.229Z,18.55
2023-04-26T05:25:28.872Z,20.42
2023-04-26T05:27:55.598Z,17.15
2023-04-26T05:30:22.691Z,17.30
2023-04-26T05:32:50.806Z,21.55
2023-04-26T05:35:17.592Z,19.90
2023-04-26T05:37:44.308Z,28.60
2023-04-26T05:40:12.659Z,26.70
2023-04-26T05:42:39.439Z,25.95
2023-04-26T05:45:06.742Z,24.13
2023-04-26T05:47:33.466Z,22.15
2023-04-26T05:50:00.206Z,21.85
2023-04-26T05:52:26.903Z,24.35
2023-04-26T05:54:53.559Z,21.90
2023-04-26T05:57:20.271Z,26.33
2023-04-26T05:59:46.942Z,24.63
2023-04-26T06:02:13.699Z,24.42
2023-04-26T06:04:40.637Z,23.85
2023-04-26T06:07:07.535Z,23.30
2023-04-26T06:09:34.310Z,24.35
2023-04-26T06:12:00.993Z,22.50
2023-04-26T06:14:30.853Z,21.90
2023-04-26T06:16:58.212Z,22.10
2023-04-26T06:19:25.027Z,24.30
2023-04-26T06:21:55.037Z,20.33
2023-04-26T06:24:21.734Z,17.23
2023-04-26T06:26:48.410Z,19.77
2023-04-26T06:29:15.124Z,21.92
2023-04-26T06:31:42.093Z,21.20
2023-04-26T06:34:08.782Z,20.75
2023-04-26T06:36:35.753Z,19.80
2023-04-26T06:39:02.492Z,20.77
2023-04-26T06:41:29.225Z,17.80
2023-04-26T06:43:56.454Z,16.80
2023-04-26T06:46:23.160Z,16.60
2023-04-26T06:48:49.901Z,12.13
2023-04-26T06:51:16.708Z,18.80
2023-04-26T06:53:43.488Z,16.38
2023-04-26T06:56:10.429Z,15.35
2023-04-26T06:58:37.076Z,18.48
2023-04-26T07:01:03.852Z,17.63
2023-04-26T07:03:31.136Z,16.00
2023-04-26T07:05:57.888Z,14.07
2023-04-26T07:08:24.555Z,11.20
2023-04-26T07:10:51.869Z,14.43
2023-04-26T07:13:18.852Z,11.82
2023-04-26T07:15:46.002Z,12.50
2023-04-26T07:18:12.811Z,13.25
2023-04-26T07:20:39.505Z,11.05
2023-04-26T07:23:06.803Z,15.52
2023-04-26T07:25:34.112Z,14.23
2023-04-26T07:28:00.886Z,14.23
2023-04-26T07:30:27.611Z,10.70
2023-04-26T07:32:54.346Z,10.40
2023-04-26T07:35:21.087Z,9.15
2023-04-26T07:37:47.777Z,9.57
2023-04-26T07:40:15.115Z,10.55
2023-04-26T07:42:42.103Z,7.50
2023-04-26T07:45:09.417Z,11.05
2023-04-26T07:47:36.539Z,9.05
2023-04-26T07:50:03.353Z,11.27
2023-04-26T07:52:33.609Z,9.10
2023-04-26T07:55:00.483Z,7.82
2023-04-26T07:57:27.158Z,6.47
2023-04-26T07:59:53.877Z,8.98
2023-04-26T08:02:25.011Z,5.72
2023-04-26T08:04:57.869Z,8.02
2023-04-26T08:07:25.041Z,7.13
2023-04-26T08:09:51.814Z,6.18
2023-04-26T08:12:18.547Z,7.60
2023-04-26T08:14:45.316Z,7.85
2023-04-26T08:17:12.351Z,6.88
2023-04-26T08:19:39.136Z,9.05
2023-04-26T08:22:06.457Z,9.68
2023-04-26T08:24:33.230Z,7.32
2023-04-26T08:26:59.908Z,6.47
2023-04-26T08:29:27.596Z,8.23
2023-04-26T08:31:54.377Z,6.30
2023-04-26T08:34:21.075Z,7.15
2023-04-26T08:36:47.803Z,6.82
2023-04-26T08:39:14.446Z,8.52
2023-04-26T08:41:46.250Z,8.13
2023-04-26T08:44:12.937Z,7.85
2023-04-26T08:47:01.968Z,5.32
2023-04-26T08:49:59.634Z,5.53
2023-04-26T08:52:31.049Z,7.70
2023-04-26T08:54:58.650Z,11.32
2023-04-26T08:57:25.645Z,7.82
2023-04-26T08:59:56.276Z,7.75
2023-04-26T09:02:23.916Z,6.10
2023-04-26T09:04:51.864Z,8.82
2023-04-26T09:07:23.095Z,6.90
2023-04-26T09:09:52.955Z,6.13
2023-04-26T09:12:20.938Z,7.65
2023-04-26T09:14:48.216Z,6.75
2023-04-26T09:17:31.258Z,5.97
2023-04-26T09:19:58.762Z,9.25
2023-04-26T09:22:36.514Z,7.57
2023-04-26T09:25:05.084Z,10.90
2023-04-26T09:27:36.760Z,7.25
2023-04-26T09:30:17.163Z,5.63
2023-04-26T09:32:44.923Z,7.97
2023-04-26T09:35:33.621Z,7.55
2023-04-26T09:38:11.082Z,5.68
2023-04-26T09:40:49.288Z,7.50
2023-04-26T09:43:20.787Z,8.98
2023-04-26T09:45:52.371Z,10.05
2023-04-26T09:48:27.036Z,5.90
2023-04-26T09:50:55.447Z,7.38
2023-04-26T09:53:37.421Z,6.25
2023-04-26T09:56:10.062Z,9.13
2023-04-26T09:58:41.146Z,6.85
2023-04-26T10:01:08.918Z,6.40
2023-04-26T10:03:36.234Z,7.05
2023-04-26T10:06:04.092Z,6.07
2023-04-26T10:08:34.150Z,5.65
2023-04-26T10:11:02.330Z,7.43
2023-04-26T10:13:29.005Z,5.70
2023-04-26T10:15:56.601Z,7.90
2023-04-26T10:18:23.378Z,7.15
2023-04-26T10:20:52.154Z,5.68
2023-04-26T10:23:25.882Z,8.25
2023-04-26T10:25:53.119Z,6.70
2023-04-26T10:28:41.508Z,11.88
2023-04-26T10:31:08.201Z,7.30
2023-04-26T10:33:35.054Z,7.97
2023-04-26T10:36:12.271Z,5.38
2023-04-26T10:38:42.699Z,4.57
2023-04-26T10:41:35.020Z,8.48
2023-04-26T10:44:41.250Z,6.75
2023-04-26T10:47:10.579Z,6.57
2023-04-26T10:49:45.985Z,6.93
2023-04-26T10:52:14.923Z,6.20
2023-04-26T10:54:48.598Z,4.63
2023-04-26T10:57:15.786Z,6.70
2023-04-26T11:00:12.860Z,6.97
2023-04-26T11:02:59.604Z,6.68
2023-04-26T11:05:36.349Z,5.72
2023-04-26T11:08:18.937Z,3.65
2023-04-26T11:10:53.692Z,3.92
2023-04-26T11:13:20.709Z,6.70
2023-04-26T11:15:49.084Z,7.50
2023-04-26T11:18:19.794Z,6.05
2023-04-26T11:20:46.454Z,4.47
2023-04-26T11:23:13.210Z,10.98
2023-04-26T11:25:40.208Z,4.63
2023-04-26T11:28:07.628Z,4.15
2023-04-26T11:30:34.455Z,4.97
2023-04-26T11:33:02.426Z,6.72
2023-04-26T11:35:30.014Z,6.63
2023-04-26T11:38:00.881Z,10.50
2023-04-26T11:40:30.133Z,8.15
2023-04-26T11:43:06.705Z,9.98
2023-04-26T11:45:36.213Z,5.25
2023-04-26T11:48:04.588Z,7.55
2023-04-26T11:50:38.290Z,7.50
2023-04-26T11:53:08.127Z,7.07
2023-04-26T11:55:36.039Z,7.47
2023-04-26T11:58:14.766Z,6.32
2023-04-26T12:01:00.502Z,8.13
2023-04-26T12:03:37.955Z,7.55
2023-04-26T12:06:05.231Z,4.03
2023-04-26T12:08:33.039Z,7.50
2023-04-26T12:11:01.560Z,4.70
2023-04-26T12:13:32.661Z,5.10
2023-04-26T12:15:59.488Z,5.53
2023-04-26T12:18:32.915Z,4.72
2023-04-26T12:20:59.981Z,6.88
2023-04-26T12:23:26.741Z,6.90
2023-04-26T12:25:57.577Z,8.13
2023-04-26T12:28:24.542Z,6.63
2023-04-26T12:30:51.492Z,7.38
2023-04-26T12:33:23.035Z,5.43
2023-04-26T12:35:50.922Z,7.70
2023-04-26T12:38:20.343Z,5.65
2023-04-26T12:40:47.529Z,5.13
2023-04-26T12:43:16.996Z,6.10
2023-04-26T12:45:43.976Z,4.20
2023-04-26T12:48:12.009Z,6.80
2023-04-26T12:50:38.950Z,6.88
2023-04-26T12:53:05.993Z,4.68
2023-04-26T12:55:33.113Z,6.35
2023-04-26T12:58:00.080Z,5.03
2023-04-26T13:00:27.267Z,6.32
2023-04-26T13:02:54.773Z,7.95
2023-04-26T13:05:24.816Z,5.60
2023-04-26T13:07:51.768Z,3.53
2023-04-26T13:10:18.641Z,3.78
2023-04-26T13:12:45.365Z,3.50
2023-04-26T13:15:11.999Z,4.50
2023-04-26T13:17:38.856Z,6.00
2023-04-26T13:20:06.726Z,4.63
2023-04-26T13:22:33.977Z,3.97
2023-04-26T13:25:00.698Z,5.18
2023-04-26T13:27:29.871Z,5.82
2023-04-26T13:29:57.900Z,5.13
2023-04-26T13:32:24.673Z,7.47
2023-04-26T13:34:51.871Z,6.38
2023-04-26T13:37:21.506Z,4.75
2023-04-26T13:39:48.393Z,8.45
2023-04-26T13:42:16.521Z,4.00
2023-04-26T13:44:43.753Z,10.13
2023-04-26T13:47:10.845Z,4.95
2023-04-26T13:49:40.165Z,4.72
2023-04-26T13:52:07.091Z,4.93
2023-04-26T13:54:34.140Z,4.70
2023-04-26T13:57:01.183Z,4.00
2023-04-26T13:59:27.899Z,5.60
2023-04-26T14:01:56.358Z,5.20
2023-04-26T14:04:25.453Z,9.15
2023-04-26T14:06:52.814Z,5.57
2023-04-26T14:09:19.538Z,4.60
2023-04-26T14:11:51.500Z,6.80
2023-04-26T14:14:20.957Z,5.30
2023-04-26T14:16:47.777Z,4.53
2023-04-26T14:19:17.309Z,7.50
2023-04-26T14:21:44.422Z,7.65
2023-04-26T14:24:11.719Z,7.32
2023-04-26T14:26:38.631Z,7.88
2023-04-26T14:29:05.512Z,6.55
2023-04-26T14:31:32.925Z,6.63
2023-04-26T14:33:59.774Z,4.93
2023-04-26T14:36:28.150Z,8.50
2023-04-26T14:38:55.044Z,5.70
2023-04-26T14:41:21.941Z,6.97
2023-04-26T14:43:48.962Z,5.68
2023-04-26T14:46:15.742Z,5.13
2023-04-26T14:48:43.991Z,4.85
2023-04-26T14:51:11.391Z,7.03
2023-04-26T14:53:39.181Z,3.33
2023-04-26T14:56:07.748Z,4.38
2023-04-26T14:58:34.736Z,5.75
2023-04-26T15:01:02.430Z,3.75
2023-04-26T15:03:29.592Z,5.25
2023-04-26T15:05:56.535Z,7.72
2023-04-26T15:08:23.359Z,7.45
2023-04-26T15:10:51.294Z,7.45
2023-04-26T15:13:18.587Z,3.65
2023-04-26T15:15:45.580Z,3.88
2023-04-26T15:18:12.487Z,3.65
2023-04-26T15:20:41.025Z,6.10
2023-04-26T15:23:08.609Z,9.10
2023-04-26T15:25:37.938Z,5.30
2023-04-26T15:28:04.991Z,4.95
2023-04-26T15:30:31.800Z,5.60
2023-04-26T15:32:58.648Z,6.55
2023-04-26T15:35:25.786Z,4.15
2023-04-26T15:37:54.211Z,8.88
2023-04-26T15:40:24.751Z,7.55
2023-04-26T15:42:52.158Z,5.80
2023-04-26T15:45:19.539Z,4.95
2023-04-26T15:47:47.297Z,4.95
2023-04-26T15:50:14.327Z,5.97
2023-04-26T15:52:41.106Z,7.40
2023-04-26T15:55:08.230Z,4.47
2023-04-26T15:57:35.362Z,4.70
2023-04-26T16:00:02.207Z,6.03
2023-04-26T16:02:29.204Z,4.60
2023-04-26T16:04:56.415Z,3.25
2023-04-26T16:07:23.705Z,4.10
2023-04-26T16:09:50.499Z,4.72
2023-04-26T16:12:17.238Z,5.43
2023-04-26T16:14:43.976Z,4.68
2023-04-26T16:17:10.873Z,4.38
2023-04-26T16:19:37.577Z,5.22
2023-04-26T16:22:04.373Z,6.10
2023-04-26T16:24:31.220Z,4.82
2023-04-26T16:26:58.003Z,4.95
2023-04-26T16:29:25.478Z,7.03
2023-04-26T16:31:52.837Z,5.00
2023-04-26T16:34:20.064Z,3.28
2023-04-26T16:36:46.933Z,6.50
2023-04-26T16:39:15.771Z,4.10
2023-04-26T16:41:42.966Z,6.47
2023-04-26T16:44:09.650Z,3.92
2023-04-26T16:46:36.587Z,4.75
2023-04-26T16:49:09.398Z,3.25
2023-04-26T16:51:38.128Z,5.85
2023-04-26T16:54:05.082Z,4.57
2023-04-26T16:56:32.378Z,5.22
2023-04-26T16:58:59.688Z,5.93
2023-04-26T17:01:26.702Z,4.97
2023-04-26T17:03:53.936Z,11.18
2023-04-26T17:06:21.205Z,6.13
2023-04-26T17:08:48.141Z,7.28
2023-04-26T17:11:16.272Z,4.63
2023-04-26T17:13:43.582Z,5.50
2023-04-26T17:16:10.398Z,4.13
2023-04-26T17:18:37.400Z,2.58
2023-04-26T17:21:04.957Z,3.92
2023-04-26T17:23:33.801Z,4.35
2023-04-26T17:26:01.529Z,3.70
2023-04-26T17:28:28.678Z,6.78
2023-04-26T17:30:55.378Z,3.75
2023-04-26T17:33:22.175Z,7.63
2023-04-26T17:35:49.142Z,7.55
2023-04-26T17:38:16.124Z,6.63
2023-04-26T17:40:42.980Z,8.85
2023-04-26T17:43:09.667Z,4.43
2023-04-26T17:45:36.354Z,4.32
2023-04-26T17:48:03.471Z,4.65
2023-04-26T17:50:30.485Z,3.45
2023-04-26T17:52:57.329Z,7.45
2023-04-26T17:55:24.069Z,3.95
2023-04-26T17:57:50.849Z,6.72
2023-04-26T18:00:18.188Z,8.50
2023-04-26T18:02:45.125Z,3.28
2023-04-26T18:05:12.249Z,5.78
2023-04-26T18:07:39.327Z,6.20
2023-04-26T18:10:06.716Z,5.97
2023-04-26T18:12:33.630Z,6.63
2023-04-26T18:15:00.476Z,5.05
2023-04-26T18:17:27.406Z,4.10
2023-04-26T18:19:54.395Z,3.47
2023-04-26T18:22:21.133Z,6.63
2023-04-26T18:24:47.828Z,3.58
2023-04-26T18:27:14.712Z,4.75
2023-04-26T18:29:41.652Z,4.28
2023-04-26T18:32:08.407Z,5.97
2023-04-26T18:34:35.064Z,4.10
2023-04-26T18:37:01.834Z,3.83
2023-04-26T18:39:28.604Z,4.72
2023-04-26T18:41:55.449Z,5.10
2023-04-26T18:44:22.109Z,3.80
2023-04-26T18:46:49.006Z,4.28
2023-04-26T18:49:15.734Z,4.55
2023-04-26T18:51:42.467Z,3.50
2023-04-26T18:54:09.095Z,4.80
2023-04-26T18:56:37.578Z,6.05
2023-04-26T18:59:04.295Z,6.32
2023-04-26T19:01:31.235Z,6.95
2023-04-26T19:03:58.118Z,3.97
2023-04-26T19:06:25.141Z,6.35
2023-04-26T19:08:51.995Z,2.33
2023-04-26T19:11:18.789Z,7.18
2023-04-26T19:13:45.556Z,4.75
2023-04-26T19:16:12.484Z,4.63
2023-04-26T19:18:44.009Z,4.38
2023-04-26T19:21:11.104Z,6.68
2023-04-26T19:23:37.907Z,4.55
2023-04-26T19:26:09.704Z,4.22
2023-04-26T19:28:38.019Z,4.82
2023-04-26T19:31:04.987Z,4.30
2023-04-26T19:33:32.577Z,3.80
2023-04-26T19:35:59.292Z,5.70
2023-04-26T19:38:26.110Z,5.40
2023-04-26T19:40:53.255Z,3.60
2023-04-26T19:43:20.653Z,6.78
2023-04-26T19:45:47.498Z,5.45
2023-04-26T19:48:14.314Z,3.38
2023-04-26T19:50:42.230Z,5.75
2023-04-26T19:53:10.027Z,5.55
2023-04-26T19:55:37.869Z,5.82
2023-04-26T19:58:05.338Z,5.30
2023-04-26T20:00:32.330Z,5.97
2023-04-26T20:02:59.739Z,5.95
2023-04-26T20:05:26.770Z,4.22
2023-04-26T20:07:54.123Z,4.43
2023-04-26T20:10:24.119Z,4.30
2023-04-26T20:12:50.916Z,4.00
2023-04-26T20:15:18.119Z,6.50
2023-04-26T20:17:45.375Z,5.15
2023-04-26T20:20:12.751Z,7.97
2023-04-26T20:22:40.229Z,6.03
2023-04-26T20:25:07.362Z,8.50
2023-04-26T20:27:37.466Z,4.57
2023-04-26T20:30:04.926Z,5.45
2023-04-26T20:32:34.060Z,7.25
2023-04-26T20:35:00.959Z,3.92
2023-04-26T20:37:27.875Z,7.88
2023-04-26T20:39:54.756Z,4.28
2023-04-26T20:42:22.345Z,4.93
2023-04-26T20:44:49.190Z,5.35
2023-04-26T20:47:17.318Z,2.95
2023-04-26T20:49:44.092Z,5.93
2023-04-26T20:52:11.125Z,5.25
2023-04-26T20:54:37.796Z,5.38
2023-04-26T20:57:04.618Z,5.05
2023-04-26T20:59:31.618Z,7.30
2023-04-26T21:01:58.466Z,5.72
2023-04-26T21:04:25.876Z,7.68
2023-04-26T21:06:52.789Z,7.70
2023-04-26T21:09:19.750Z,9.43
2023-04-26T21:11:46.563Z,6.90
2023-04-26T21:14:13.830Z,5.68
2023-04-26T21:16:40.793Z,6.22
2023-04-26T21:19:08.283Z,5.95
2023-04-26T21:21:35.638Z,6.57
2023-04-26T21:24:03.392Z,7.50
2023-04-26T21:26:30.302Z,7.28
2023-04-26T21:28:57.032Z,8.27
2023-04-26T21:31:23.960Z,6.15
2023-04-26T21:33:50.943Z,6.57
2023-04-26T21:36:17.740Z,10.95
2023-04-26T21:38:44.671Z,8.93
2023-04-26T21:41:11.475Z,5.70
2023-04-26T21:43:38.203Z,5.95
2023-04-26T21:46:05.100Z,6.82
2023-04-26T21:48:31.771Z,7.60
2023-04-26T21:50:58.604Z,10.60
2023-04-26T21:53:25.322Z,7.18
2023-04-26T21:55:55.481Z,7.40
2023-04-26T21:58:22.597Z,7.45
2023-04-26T22:00:49.959Z,8.45
2023-04-26T22:03:17.347Z,6.75
2023-04-26T22:05:44.382Z,9.07
2023-04-26T22:08:11.153Z,8.40
2023-04-26T22:10:37.799Z,8.30
2023-04-26T22:13:05.455Z,9.45
2023-04-26T22:15:32.322Z,8.95
2023-04-26T22:17:59.125Z,11.13
2023-04-26T22:20:26.589Z,9.75
2023-04-26T22:22:53.905Z,12.85
2023-04-26T22:25:21.130Z,13.50
2023-04-26T22:27:48.368Z,11.32
2023-04-26T22:30:24.542Z,12.98
2023-04-26T22:32:54.781Z,9.63
2023-04-26T22:35:22.543Z,9.63
2023-04-26T22:37:49.408Z,8.73
2023-04-26T22:40:16.317Z,9.77
2023-04-26T22:42:43.604Z,7.97
2023-04-26T22:45:11.180Z,13.73
2023-04-26T22:47:38.485Z,6.18
2023-04-26T22:50:06.147Z,9.15
2023-04-26T22:52:33.020Z,6.53
2023-04-26T22:55:00.135Z,5.40
2023-04-26T22:57:27.408Z,6.32
2023-04-26T22:59:54.029Z,4.78
2023-04-26T23:02:21.091Z,6.68
2023-04-26T23:04:48.381Z,4.70
2023-04-26T23:07:15.087Z,6.07
2023-04-26T23:09:41.831Z,5.32
2023-04-26T23:12:08.523Z,5.20
2023-04-26T23:14:35.349Z,5.45
2023-04-26T23:17:02.912Z,7.80
2023-04-26T23:19:29.630Z,4.68
2023-04-26T23:21:56.511Z,5.57
2023-04-26T23:24:23.173Z,5.05
2023-04-26T23:26:49.950Z,5.75
2023-04-26T23:29:16.752Z,6.50
2023-04-26T23:31:43.478Z,11.07
2023-04-26T23:34:10.176Z,6.32
2023-04-26T23:36:36.943Z,8.32
2023-04-26T23:39:03.903Z,9.38
2023-04-26T23:41:31.009Z,7.38
2023-04-26T23:43:57.688Z,6.63
2023-04-26T23:46:24.457Z,6.45
2023-04-26T23:48:51.141Z,6.10
2023-04-26T23:51:17.893Z,12.25
2023-04-26T23:53:45.129Z,7.47
2023-04-26T23:56:11.876Z,5.95
2023-04-26T23:58:38.620Z,6.78
